createdAt,value
2019-03-01T00:01:55.388Z,75.20
2019-03-01T00:04:41.003Z,74.90
2019-03-01T00:07:33.620Z,74.30
2019-03-01T00:10:15.999Z,74.00
2019-03-01T00:12:58.168Z,73.50
2019-03-01T00:15:52.688Z,73.20
2019-03-01T00:18:48.300Z,73.40
2019-03-01T00:21:47.309Z,73.60
2019-03-01T00:24:26.514Z,74.10
2019-03-01T00:27:08.775Z,74.20
2019-03-01T00:29:50.930Z,74.50
2019-03-01T00:32:49.692Z,74.70
2019-03-01T00:35:47.174Z,75.10
2019-03-01T00:38:23.369Z,75.40
2019-03-01T00:41:14.681Z,75.50
2019-03-01T00:43:51.187Z,75.40
2019-03-01T00:46:22.454Z,76.30
2019-03-01T00:48:52.704Z,77.00
2019-03-01T00:51:22.867Z,77.30
2019-03-01T00:53:53.114Z,78.30
2019-03-01T00:56:23.294Z,79.10
2019-03-01T00:58:53.573Z,79.60
2019-03-01T01:01:23.775Z,80.10
2019-03-01T01:03:54.031Z,79.00
2019-03-01T01:06:24.208Z,78.10
2019-03-01T01:08:54.429Z,77.30
2019-03-01T01:11:24.619Z,77.30
2019-03-01T01:13:54.875Z,78.00
2019-03-01T01:16:25.033Z,78.10
2019-03-01T01:18:55.296Z,77.60
2019-03-01T01:21:25.521Z,79.10
2019-03-01T01:23:55.779Z,81.00
2019-03-01T01:26:25.942Z,80.30
2019-03-01T01:28:56.178Z,81.30
2019-03-01T01:31:26.334Z,81.60
2019-03-01T01:33:56.601Z,80.90
2019-03-01T01:36:26.851Z,80.30
2019-03-01T01:38:57.098Z,79.90
2019-03-01T01:41:27.326Z,79.30
2019-03-01T01:43:57.556Z,79.00
2019-03-01T01:46:27.787Z,78.80
2019-03-01T01:48:58.030Z,78.80
2019-03-01T01:51:29.508Z,78.60
2019-03-01T01:53:59.770Z,78.60
2019-03-01T01:56:29.966Z,78.20
2019-03-01T01:59:00.210Z,78.00
2019-03-01T02:01:30.375Z,79.30
2019-03-01T02:04:00.642Z,80.00
2019-03-01T02:06:30.820Z,81.00
2019-03-01T02:09:01.052Z,81.80
2019-03-01T02:11:32.772Z,82.30
2019-03-01T02:14:03.025Z,84.00
2019-03-01T02:16:34.150Z,83.60
2019-03-01T02:19:04.401Z,82.20
2019-03-01T02:21:34.595Z,81.90
2019-03-01T02:24:04.814Z,81.60
2019-03-01T02:26:35.007Z,82.20
2019-03-01T02:29:05.229Z,82.60
2019-03-01T02:31:35.645Z,81.70
2019-03-01T02:34:06.085Z,80.80
2019-03-01T02:36:36.276Z,79.70
2019-03-01T02:39:06.509Z,80.80
2019-03-01T02:41:37.296Z,81.30
2019-03-01T02:44:07.569Z,83.90
2019-03-01T02:46:37.840Z,83.40
2019-03-01T02:49:09.301Z,82.10
2019-03-01T02:51:39.493Z,82.40
2019-03-01T02:54:09.708Z,82.70
2019-03-01T02:56:39.879Z,83.00
2019-03-01T02:59:10.111Z,83.30
2019-03-01T03:01:40.295Z,84.40
2019-03-01T03:04:10.616Z,85.60
2019-03-01T03:06:42.378Z,88.00
2019-03-01T03:09:12.920Z,87.90
2019-03-01T03:11:43.074Z,87.70
2019-03-01T03:14:13.309Z,85.80
2019-03-01T03:16:43.484Z,87.30
2019-03-01T03:19:13.750Z,88.90
2019-03-01T03:21:43.929Z,86.70
2019-03-01T03:24:14.189Z,83.10
2019-03-01T03:26:44.350Z,82.10
2019-03-01T03:29:14.584Z,81.40
2019-03-01T03:31:44.837Z,82.70
2019-03-01T03:34:16.308Z,84.90
2019-03-01T03:36:46.535Z,87.70
2019-03-01T03:39:16.763Z,87.10
2019-03-01T03:41:47.046Z,84.10
2019-03-01T03:44:17.262Z,84.50
2019-03-01T03:46:47.588Z,88.00
2019-03-01T03:49:17.829Z,87.30
2019-03-01T03:51:48.084Z,83.10
2019-03-01T03:54:18.315Z,82.80
2019-03-01T03:56:48.559Z,84.80
2019-03-01T03:59:18.792Z,86.50
2019-03-01T04:01:49.051Z,86.80
2019-03-01T04:04:20.116Z,86.30
2019-03-01T04:06:50.366Z,86.60
2019-03-01T04:09:20.646Z,84.30
2019-03-01T04:11:50.890Z,85.30
2019-03-01T04:14:21.065Z,86.80
2019-03-01T04:16:51.336Z,89.80
2019-03-01T04:19:21.675Z,85.70
2019-03-01T04:21:51.904Z,86.90
2019-03-01T04:24:22.165Z,85.30
2019-03-01T04:26:52.413Z,86.20
2019-03-01T04:29:22.635Z,87.10
2019-03-01T04:31:53.707Z,87.40
2019-03-01T04:34:23.972Z,90.30
2019-03-01T04:36:54.217Z,90.10
2019-03-01T04:39:24.464Z,90.10
2019-03-01T04:41:54.669Z,90.90
2019-03-01T04:44:24.890Z,90.10
2019-03-01T04:46:55.109Z,88.40
2019-03-01T04:49:25.390Z,84.90
2019-03-01T04:51:55.700Z,86.60
2019-03-01T04:54:25.936Z,87.90
2019-03-01T04:56:56.192Z,87.50
2019-03-01T04:59:26.424Z,87.30
2019-03-01T05:01:56.656Z,87.70
2019-03-01T05:04:26.889Z,89.00
2019-03-01T05:06:57.246Z,89.70
2019-03-01T05:09:27.517Z,89.70
2019-03-01T05:11:57.764Z,89.70
2019-03-01T05:14:28.016Z,88.90
2019-03-01T05:16:58.350Z,88.20
2019-03-01T05:19:28.567Z,89.30
2019-03-01T05:21:58.853Z,89.90
2019-03-01T05:24:29.073Z,89.50
2019-03-01T05:26:59.306Z,90.10
2019-03-01T05:29:30.810Z,89.80
2019-03-01T05:32:01.066Z,90.20
2019-03-01T05:34:31.316Z,90.00
2019-03-01T05:37:01.555Z,89.60
2019-03-01T05:39:31.817Z,89.60
2019-03-01T05:42:02.031Z,90.00
2019-03-01T05:44:32.296Z,89.70
2019-03-01T05:47:02.544Z,89.30
2019-03-01T05:49:32.792Z,92.00
2019-03-01T05:52:03.007Z,90.10
2019-03-01T05:54:33.253Z,86.90
2019-03-01T05:57:03.519Z,87.00
2019-03-01T05:59:33.744Z,87.80
2019-03-01T06:02:29.778Z,88.80
2019-03-01T06:05:00.410Z,89.40
2019-03-01T06:07:39.873Z,90.10
2019-03-01T06:10:16.025Z,90.10
2019-03-01T06:13:07.488Z,90.30
2019-03-01T06:15:53.024Z,90.20
2019-03-01T06:18:42.890Z,90.70
2019-03-01T06:21:47.953Z,90.70
2019-03-01T06:24:30.270Z,90.10
2019-03-01T06:27:29.253Z,89.20
2019-03-01T06:30:05.246Z,89.50
2019-03-01T06:33:02.897Z,90.00
2019-03-01T06:35:38.956Z,89.60
2019-03-01T06:38:39.462Z,88.20
2019-03-01T06:41:17.036Z,87.90
2019-03-01T06:43:50.396Z,88.00
2019-03-01T06:46:38.850Z,87.60
2019-03-01T06:49:11.848Z,88.40
2019-03-01T06:51:42.011Z,88.50
2019-03-01T06:54:12.265Z,88.10
2019-03-01T06:56:42.438Z,88.20
2019-03-01T06:59:12.723Z,88.10
2019-03-01T07:01:43.836Z,88.30
2019-03-01T07:04:15.066Z,87.90
2019-03-01T07:06:45.238Z,87.60
2019-03-01T07:09:15.474Z,87.50
2019-03-01T07:11:45.655Z,87.20
2019-03-01T07:14:16.820Z,86.90
2019-03-01T07:16:46.999Z,85.60
2019-03-01T07:19:17.252Z,85.20
2019-03-01T07:21:47.592Z,85.50
2019-03-01T07:24:17.928Z,85.40
2019-03-01T07:26:48.401Z,85.20
2019-03-01T07:29:18.623Z,85.40
2019-03-01T07:31:48.797Z,85.00
2019-03-01T07:34:19.007Z,84.10
2019-03-01T07:36:49.180Z,83.80
2019-03-01T07:39:19.555Z,83.70
2019-03-01T07:41:49.778Z,82.50
2019-03-01T07:44:19.995Z,82.00
2019-03-01T07:46:53.278Z,81.90
2019-03-01T07:49:22.044Z,81.40
2019-03-01T07:51:52.254Z,80.60
2019-03-01T07:54:22.540Z,79.50
2019-03-01T07:56:52.805Z,79.30
2019-03-01T07:59:24.037Z,79.50
2019-03-01T08:01:55.948Z,78.80
2019-03-01T08:04:28.870Z,79.00
2019-03-01T08:06:58.244Z,79.20
2019-03-01T08:09:28.393Z,78.90
2019-03-01T08:11:58.615Z,78.50
2019-03-01T08:14:31.523Z,78.30
2019-03-01T08:17:01.832Z,78.40
2019-03-01T08:19:33.346Z,78.30
2019-03-01T08:22:03.562Z,77.90
2019-03-01T08:24:33.711Z,78.10
2019-03-01T08:27:06.511Z,78.30
2019-03-01T08:29:35.823Z,77.20
2019-03-01T08:32:06.076Z,76.00
2019-03-01T08:34:37.345Z,74.80
2019-03-01T08:37:08.241Z,74.20
2019-03-01T08:39:39.723Z,74.20
2019-03-01T08:42:10.543Z,74.10
2019-03-01T08:44:40.709Z,74.20
2019-03-01T08:47:10.964Z,73.90
2019-03-01T08:49:41.117Z,71.60
2019-03-01T08:52:11.373Z,72.50
2019-03-01T08:54:41.544Z,72.40
2019-03-01T08:57:11.901Z,72.40
2019-03-01T08:59:42.171Z,72.70
2019-03-01T09:02:12.462Z,72.20
2019-03-01T09:04:50.657Z,71.20
2019-03-01T09:07:15.903Z,70.00
2019-03-01T09:09:56.850Z,71.40
2019-03-01T09:12:28.167Z,70.40
2019-03-01T09:14:58.494Z,70.30
2019-03-01T09:17:28.829Z,70.20
2019-03-01T09:20:00.204Z,70.00
2019-03-01T09:22:30.897Z,67.80
2019-03-01T09:25:02.693Z,68.00
2019-03-01T09:27:33.061Z,69.10
2019-03-01T09:30:03.968Z,67.20
2019-03-01T09:32:34.871Z,67.20
2019-03-01T09:35:16.113Z,66.20
2019-03-01T09:37:46.409Z,65.70
2019-03-01T09:40:16.577Z,65.10
2019-03-01T09:42:47.400Z,65.00
2019-03-01T09:45:19.392Z,64.10
2019-03-01T09:47:49.784Z,63.40
2019-03-01T09:50:20.158Z,63.90
2019-03-01T09:52:50.407Z,64.10
2019-03-01T09:55:20.558Z,64.70
2019-03-01T09:57:50.808Z,64.90
2019-03-01T10:00:35.889Z,64.50
2019-03-01T10:03:06.106Z,64.60
2019-03-01T10:05:36.273Z,64.70
2019-03-01T10:08:07.752Z,64.30
2019-03-01T10:10:38.274Z,65.40
2019-03-01T10:13:09.516Z,65.50
2019-03-01T10:15:39.687Z,64.90
2019-03-01T10:18:09.909Z,64.40
2019-03-01T10:20:40.104Z,64.80
2019-03-01T10:23:10.334Z,65.80
2019-03-01T10:25:40.520Z,64.30
2019-03-01T10:28:22.279Z,62.50
2019-03-01T10:30:53.398Z,63.90
2019-03-01T10:33:23.634Z,64.80
2019-03-01T10:35:53.828Z,64.20
2019-03-01T10:38:24.075Z,64.70
2019-03-01T10:40:54.402Z,63.70
2019-03-01T10:43:24.650Z,62.40
2019-03-01T10:45:54.834Z,62.40
2019-03-01T10:48:25.093Z,62.20
2019-03-01T10:50:55.279Z,63.70
2019-03-01T10:53:25.525Z,63.60
2019-03-01T10:55:55.735Z,63.00
2019-03-01T10:58:25.964Z,62.10
2019-03-01T11:00:56.150Z,63.70
2019-03-01T11:03:26.432Z,62.80
2019-03-01T11:05:56.607Z,62.70
2019-03-01T11:08:26.846Z,63.30
2019-03-01T11:10:57.010Z,62.50
2019-03-01T11:13:27.223Z,63.20
2019-03-01T11:15:57.392Z,63.00
2019-03-01T11:18:27.645Z,63.40
2019-03-01T11:20:57.864Z,64.00
2019-03-01T11:23:28.113Z,64.60
2019-03-01T11:25:58.291Z,64.80
2019-03-01T11:28:28.542Z,64.40
2019-03-01T11:30:58.714Z,65.10
2019-03-01T11:33:28.983Z,64.60
2019-03-01T11:35:59.153Z,63.70
2019-03-01T11:38:29.395Z,64.10
2019-03-01T11:41:12.280Z,63.90
2019-03-01T11:43:45.355Z,64.40
2019-03-01T11:46:15.526Z,63.10
2019-03-01T11:48:45.786Z,63.90
2019-03-01T11:51:16.066Z,63.90
2019-03-01T11:53:46.339Z,64.30
2019-03-01T11:56:16.627Z,63.70
2019-03-01T11:58:46.915Z,63.10
2019-03-01T12:01:18.323Z,63.70
2019-03-01T12:03:48.577Z,63.40
2019-03-01T12:06:18.751Z,63.40
2019-03-01T12:08:49.095Z,62.70
2019-03-01T12:11:19.330Z,63.60
2019-03-01T12:13:49.672Z,62.90
2019-03-01T12:16:19.864Z,62.80
2019-03-01T12:18:51.403Z,62.80
2019-03-01T12:21:21.598Z,62.40
2019-03-01T12:23:51.853Z,63.70
2019-03-01T12:26:22.097Z,62.70
2019-03-01T12:28:52.418Z,60.60
2019-03-01T12:31:22.587Z,62.50
2019-03-01T12:33:54.037Z,61.50
2019-03-01T12:36:24.226Z,60.80
2019-03-01T12:38:54.492Z,61.10
2019-03-01T12:41:24.668Z,61.00
2019-03-01T12:43:54.923Z,62.00
2019-03-01T12:46:26.292Z,60.70
2019-03-01T12:48:56.581Z,60.60
2019-03-01T12:51:26.841Z,60.20
2019-03-01T12:53:57.102Z,59.90
2019-03-01T12:56:27.349Z,60.60
2019-03-01T12:58:57.613Z,60.70
2019-03-01T13:01:27.823Z,58.90
2019-03-01T13:03:58.075Z,59.10
2019-03-01T13:06:28.310Z,58.50
2019-03-01T13:08:58.589Z,59.10
2019-03-01T13:11:28.822Z,58.50
2019-03-01T13:13:59.052Z,58.60
2019-03-01T13:16:29.375Z,57.40
2019-03-01T13:18:59.600Z,57.40
2019-03-01T13:21:29.854Z,57.80
2019-03-01T13:24:00.101Z,57.60
2019-03-01T13:26:30.352Z,56.10
2019-03-01T13:29:00.572Z,56.10
2019-03-01T13:31:30.813Z,56.20
2019-03-01T13:34:01.073Z,56.20
2019-03-01T13:36:31.314Z,56.60
2019-03-01T13:39:01.573Z,56.70
2019-03-01T13:41:33.937Z,55.70
2019-03-01T13:44:05.219Z,56.50
2019-03-01T13:46:35.472Z,57.10
2019-03-01T13:49:05.671Z,57.40
2019-03-01T13:51:35.909Z,58.10
2019-03-01T13:54:08.981Z,58.00
2019-03-01T13:56:37.991Z,57.80
2019-03-01T13:59:08.204Z,57.30
2019-03-01T14:01:38.551Z,57.70
2019-03-01T14:04:09.533Z,58.10
2019-03-01T14:06:40.121Z,57.30
2019-03-01T14:09:12.494Z,56.90
2019-03-01T14:11:42.736Z,56.60
2019-03-01T14:14:12.915Z,56.90
2019-03-01T14:16:44.458Z,57.50
2019-03-01T14:19:14.645Z,57.60
2019-03-01T14:21:44.873Z,56.80
2019-03-01T14:24:15.095Z,57.00
2019-03-01T14:26:45.332Z,57.20
2019-03-01T14:29:16.070Z,57.70
2019-03-01T14:31:47.221Z,56.90
2019-03-01T14:34:17.389Z,55.30
2019-03-01T14:36:47.634Z,56.70
2019-03-01T14:39:17.824Z,56.40
2019-03-01T14:41:48.047Z,56.40
2019-03-01T14:44:18.293Z,57.30
2019-03-01T14:46:48.534Z,56.70
2019-03-01T14:49:21.670Z,55.70
2019-03-01T14:51:50.694Z,54.10
2019-03-01T14:54:21.353Z,56.50
2019-03-01T14:56:51.835Z,56.40
2019-03-01T14:59:25.207Z,56.90
2019-03-01T15:02:10.653Z,56.30
2019-03-01T15:04:40.878Z,56.60
2019-03-01T15:07:11.133Z,56.20
2019-03-01T15:09:41.366Z,56.10
2019-03-01T15:12:11.631Z,56.40
2019-03-01T15:14:42.819Z,56.20
2019-03-01T15:17:14.797Z,56.30
2019-03-01T15:19:45.429Z,57.60
2019-03-01T15:22:15.966Z,56.80
2019-03-01T15:24:47.495Z,56.20
2019-03-01T15:27:17.904Z,55.60
2019-03-01T15:29:48.120Z,54.90
2019-03-01T15:32:18.414Z,54.40
2019-03-01T15:34:48.655Z,54.40
2019-03-01T15:37:18.811Z,54.70
2019-03-01T15:39:51.297Z,53.70
2019-03-01T15:42:21.191Z,53.80
2019-03-01T15:44:51.582Z,53.50
2019-03-01T15:47:23.875Z,53.50
2019-03-01T15:49:53.976Z,54.90
2019-03-01T15:52:24.463Z,54.20
2019-03-01T15:54:54.713Z,55.20
2019-03-01T15:57:24.932Z,54.40
2019-03-01T15:59:55.134Z,54.50
2019-03-01T16:02:25.368Z,54.90
2019-03-01T16:04:55.597Z,55.20
2019-03-01T16:07:25.796Z,55.10
2019-03-01T16:09:58.286Z,55.20
2019-03-01T16:12:29.006Z,55.60
2019-03-01T16:15:00.495Z,55.70
2019-03-01T16:17:32.858Z,56.20
2019-03-01T16:20:05.831Z,56.10
2019-03-01T16:22:36.088Z,56.80
2019-03-01T16:25:17.217Z,57.70
2019-03-01T16:27:50.656Z,59.20
2019-03-01T16:30:21.140Z,62.00
2019-03-01T16:32:51.572Z,62.30
2019-03-01T16:35:21.853Z,61.50
2019-03-01T16:37:53.683Z,60.30
2019-03-01T16:40:24.978Z,59.10
2019-03-01T16:42:55.232Z,58.60
2019-03-01T16:45:26.110Z,58.80
2019-03-01T16:47:56.339Z,58.80
2019-03-01T16:50:26.518Z,59.60
2019-03-01T16:52:56.768Z,60.00
2019-03-01T16:55:30.410Z,60.80
2019-03-01T16:58:06.737Z,61.00
2019-03-01T17:00:31.582Z,60.70
2019-03-01T17:03:16.758Z,60.60
2019-03-01T17:05:45.066Z,60.30
2019-03-01T17:08:15.294Z,62.70
2019-03-01T17:10:45.453Z,64.80
2019-03-01T17:13:15.690Z,65.90
2019-03-01T17:15:48.501Z,66.10
2019-03-01T17:18:17.714Z,64.90
2019-03-01T17:20:47.900Z,64.40
2019-03-01T17:23:19.137Z,63.60
2019-03-01T17:25:49.314Z,63.10
2019-03-01T17:28:22.824Z,62.90
2019-03-01T17:30:51.758Z,62.90
2019-03-01T17:33:22.177Z,63.70
2019-03-01T17:35:52.518Z,63.50
2019-03-01T17:38:22.761Z,63.70
2019-03-01T17:40:52.982Z,63.30
2019-03-01T17:43:23.224Z,63.50
2019-03-01T17:45:54.436Z,64.90
2019-03-01T17:48:25.377Z,65.60
2019-03-01T17:50:55.618Z,66.50
2019-03-01T17:53:25.825Z,65.60
2019-03-01T17:55:56.099Z,65.50
2019-03-01T17:58:26.478Z,66.50
2019-03-01T18:00:58.872Z,68.00
2019-03-01T18:03:28.900Z,70.10
2019-03-01T18:05:59.632Z,70.80
2019-03-01T18:08:30.198Z,69.30
2019-03-01T18:11:00.679Z,69.00
2019-03-01T18:13:31.412Z,68.50
2019-03-01T18:16:01.833Z,68.30
2019-03-01T18:18:34.005Z,68.00
2019-03-01T18:21:04.385Z,68.20
2019-03-01T18:23:37.908Z,67.70
2019-03-01T18:26:06.965Z,67.90
2019-03-01T18:28:38.813Z,68.20
2019-03-01T18:31:10.696Z,68.40
2019-03-01T18:33:42.654Z,68.70
2019-03-01T18:36:13.475Z,68.80
2019-03-01T18:38:44.197Z,69.50
2019-03-01T18:41:14.800Z,70.00
2019-03-01T18:43:48.758Z,70.50
2019-03-01T18:46:19.246Z,70.20
2019-03-01T18:48:48.985Z,70.50
2019-03-01T18:51:19.575Z,71.40
2019-03-01T18:53:50.205Z,73.70
2019-03-01T18:56:20.766Z,75.20
2019-03-01T18:58:51.432Z,74.70
2019-03-01T19:01:22.011Z,73.20
2019-03-01T19:03:53.868Z,73.80
2019-03-01T19:06:24.366Z,74.90
2019-03-01T19:08:55.021Z,75.20
2019-03-01T19:11:25.561Z,78.30
2019-03-01T19:13:58.515Z,77.50
2019-03-01T19:16:28.634Z,76.50
2019-03-01T19:19:00.176Z,75.00
2019-03-01T19:21:30.757Z,77.20
2019-03-01T19:24:04.688Z,76.60
2019-03-01T19:26:33.774Z,76.40
2019-03-01T19:29:05.021Z,77.40
2019-03-01T19:31:35.630Z,75.20
2019-03-01T19:34:07.295Z,76.60
2019-03-01T19:36:38.938Z,76.20
2019-03-01T19:39:13.280Z,77.80
2019-03-01T19:41:46.864Z,78.10
2019-03-01T19:44:17.590Z,80.00
2019-03-01T19:46:51.325Z,81.00
2019-03-01T19:49:19.863Z,82.80
2019-03-01T19:51:50.701Z,80.10
2019-03-01T19:54:21.384Z,79.00
2019-03-01T19:56:52.097Z,80.30
2019-03-01T19:59:22.833Z,81.50
2019-03-01T20:01:56.184Z,79.70
2019-03-01T20:04:25.017Z,78.50
2019-03-01T20:06:55.592Z,76.90
2019-03-01T20:09:26.274Z,78.50
2019-03-01T20:11:59.206Z,80.00
2019-03-01T20:14:30.392Z,79.60
2019-03-01T20:17:00.494Z,80.50
2019-03-01T20:19:31.186Z,81.20
2019-03-01T20:22:01.841Z,84.80
2019-03-01T20:24:32.521Z,82.40
2019-03-01T20:27:03.850Z,80.30
2019-03-01T20:29:34.622Z,81.30
2019-03-01T20:32:05.191Z,81.70
2019-03-01T20:34:38.032Z,83.50
2019-03-01T20:37:08.158Z,83.70
2019-03-01T20:39:38.639Z,84.20
2019-03-01T20:42:09.108Z,84.90
2019-03-01T20:44:39.798Z,84.10
2019-03-01T20:47:10.172Z,84.80
2019-03-01T20:49:40.523Z,85.40
2019-03-01T20:52:11.255Z,84.80
2019-03-01T20:54:41.525Z,84.80
2019-03-01T20:57:12.033Z,86.50
2019-03-01T20:59:42.263Z,87.90
2019-03-01T21:02:13.091Z,85.60
2019-03-01T21:04:53.321Z,84.70
2019-03-01T21:07:17.018Z,84.90
2019-03-01T21:09:47.065Z,85.50
2019-03-01T21:12:17.338Z,86.70
2019-03-01T21:14:47.792Z,86.30
2019-03-01T21:17:20.306Z,86.40
2019-03-01T21:19:49.922Z,87.50
2019-03-01T21:22:20.096Z,89.40
2019-03-01T21:24:50.445Z,86.70
2019-03-01T21:27:22.670Z,84.70
2019-03-01T21:29:52.451Z,82.80
2019-03-01T21:32:22.612Z,81.50
2019-03-01T21:34:53.834Z,80.60
2019-03-01T21:37:23.995Z,80.10
2019-03-01T21:39:55.578Z,80.70
2019-03-01T21:42:25.997Z,79.80
2019-03-01T21:44:56.219Z,79.50
2019-03-01T21:47:26.378Z,79.20
2019-03-01T21:49:59.768Z,80.60
2019-03-01T21:52:29.611Z,80.90
2019-03-01T21:54:59.967Z,80.60
2019-03-01T21:57:31.175Z,80.30
2019-03-01T22:00:01.922Z,80.20
2019-03-01T22:02:33.831Z,79.70
2019-03-01T22:05:05.151Z,80.20
2019-03-01T22:07:37.133Z,80.10
2019-03-01T22:10:09.870Z,79.90
2019-03-01T22:12:40.104Z,79.90
2019-03-01T22:15:13.373Z,80.20
2019-03-01T22:17:45.453Z,80.00
2019-03-01T22:20:15.435Z,79.90
2019-03-01T22:22:45.668Z,80.00
2019-03-01T22:25:15.997Z,80.00
2019-03-01T22:27:46.216Z,80.40
2019-03-01T22:30:30.668Z,78.40
2019-03-01T22:33:00.918Z,80.00
2019-03-01T22:35:31.121Z,81.60
2019-03-01T22:38:04.796Z,82.80
2019-03-01T22:40:33.173Z,83.20
2019-03-01T22:43:03.429Z,84.20
2019-03-01T22:45:33.892Z,84.10
2019-03-01T22:48:04.338Z,83.50
2019-03-01T22:50:34.551Z,84.20
2019-03-01T22:53:06.547Z,85.70
2019-03-01T22:55:37.814Z,86.90
2019-03-01T22:58:08.042Z,86.40
2019-03-01T23:00:57.816Z,86.50
2019-03-01T23:03:26.696Z,86.30
2019-03-01T23:05:56.929Z,86.30
2019-03-01T23:08:27.233Z,87.10
2019-03-01T23:10:57.888Z,88.10
2019-03-01T23:13:28.366Z,88.70
2019-03-01T23:15:58.600Z,83.50
2019-03-01T23:18:28.829Z,83.50
2019-03-01T23:21:01.101Z,86.10
2019-03-01T23:23:30.906Z,90.00
2019-03-01T23:26:01.153Z,87.00
2019-03-01T23:28:31.368Z,87.50
2019-03-01T23:31:03.660Z,85.30
2019-03-01T23:33:33.445Z,87.30
2019-03-01T23:36:03.703Z,85.50
2019-03-01T23:38:34.998Z,86.00
2019-03-01T23:41:07.804Z,87.40
2019-03-01T23:43:37.057Z,90.80
2019-03-01T23:46:07.306Z,89.00
2019-03-01T23:48:37.611Z,86.90
2019-03-01T23:51:10.600Z,86.70
2019-03-01T23:53:39.677Z,83.60
2019-03-01T23:56:09.913Z,85.80
2019-03-01T23:58:40.131Z,86.80
